sensor_id;sensor_type;location;lat;lon;timestamp;P1;durP1;ratioP1;P2;durP2;ratioP2
18997;SDS011;9632;51.018;4.284;2023-11-21T00:00:46;30.10;;;16.95;;
18997;SDS011;9632;51.018;4.284;2023-11-21T00:03:12;33.42;;;16.80;;
18997;SDS011;9632;51.018;4.284;2023-11-21T00:05:40;31.90;;;16.58;;
18997;SDS011;9632;51.018;4.284;2023-11-21T00:08:09;27.73;;;15.43;;
18997;SDS011;9632;51.018;4.284;2023-11-21T00:10:35;30.13;;;15.60;;
18997;SDS011;9632;51.018;4.284;2023-11-21T00:13:03;31.02;;;14.90;;
18997;SDS011;9632;51.018;4.284;2023-11-21T00:15:29;26.17;;;14.88;;
18997;SDS011;9632;51.018;4.284;2023-11-21T00:17:55;28.00;;;15.13;;
18997;SDS011;9632;51.018;4.284;2023-11-21T00:20:20;28.92;;;15.05;;
18997;SDS011;9632;51.018;4.284;2023-11-21T00:22:47;27.52;;;14.90;;
18997;SDS011;9632;51.018;4.284;2023-11-21T00:25:13;27.20;;;14.48;;
18997;SDS011;9632;51.018;4.284;2023-11-21T00:27:40;25.52;;;13.95;;
18997;SDS011;9632;51.018;4.284;2023-11-21T00:30:06;24.73;;;13.95;;
18997;SDS011;9632;51.018;4.284;2023-11-21T00:32:34;25.65;;;13.30;;
18997;SDS011;9632;51.018;4.284;2023-11-21T00:35:01;24.42;;;12.65;;
18997;SDS011;9632;51.018;4.284;2023-11-21T00:37:27;24.40;;;12.77;;
18997;SDS011;9632;51.018;4.284;2023-11-21T00:39:52;20.55;;;11.70;;
18997;SDS011;9632;51.018;4.284;2023-11-21T00:42:18;18.55;;;10.60;;
18997;SDS011;9632;51.018;4.284;2023-11-21T00:44:43;16.15;;;9.70;;
18997;SDS011;9632;51.018;4.284;2023-11-21T00:47:09;16.67;;;9.70;;
18997;SDS011;9632;51.018;4.284;2023-11-21T00:49:35;16.60;;;9.43;;
18997;SDS011;9632;51.018;4.284;2023-11-21T00:52:01;17.95;;;9.70;;
18997;SDS011;9632;51.018;4.284;2023-11-21T00:54:27;20.58;;;10.05;;
18997;SDS011;9632;51.018;4.284;2023-11-21T00:56:53;18.58;;;10.27;;
18997;SDS011;9632;51.018;4.284;2023-11-21T00:59:19;17.42;;;9.75;;
18997;SDS011;9632;51.018;4.284;2023-11-21T01:01:44;17.10;;;9.95;;
18997;SDS011;9632;51.018;4.284;2023-11-21T01:04:10;20.85;;;10.80;;
18997;SDS011;9632;51.018;4.284;2023-11-21T01:06:36;19.15;;;10.75;;
18997;SDS011;9632;51.018;4.284;2023-11-21T01:09:01;17.38;;;10.30;;
18997;SDS011;9632;51.018;4.284;2023-11-21T01:11:32;22.08;;;9.73;;
18997;SDS011;9632;51.018;4.284;2023-11-21T01:14:01;17.38;;;9.95;;
18997;SDS011;9632;51.018;4.284;2023-11-21T01:16:28;19.15;;;9.75;;
18997;SDS011;9632;51.018;4.284;2023-11-21T01:18:54;21.88;;;10.95;;
18997;SDS011;9632;51.018;4.284;2023-11-21T01:21:19;23.25;;;11.95;;
18997;SDS011;9632;51.018;4.284;2023-11-21T01:23:45;27.15;;;11.95;;
18997;SDS011;9632;51.018;4.284;2023-11-21T01:26:12;26.05;;;11.68;;
18997;SDS011;9632;51.018;4.284;2023-11-21T01:28:38;28.63;;;13.65;;
18997;SDS011;9632;51.018;4.284;2023-11-21T01:31:03;29.00;;;13.43;;
18997;SDS011;9632;51.018;4.284;2023-11-21T01:33:29;28.38;;;13.23;;
18997;SDS011;9632;51.018;4.284;2023-11-21T01:35:55;25.52;;;12.57;;
18997;SDS011;9632;51.018;4.284;2023-11-21T01:38:21;28.60;;;13.35;;
18997;SDS011;9632;51.018;4.284;2023-11-21T01:40:47;33.13;;;14.55;;
18997;SDS011;9632;51.018;4.284;2023-11-21T01:43:14;31.13;;;14.27;;
18997;SDS011;9632;51.018;4.284;2023-11-21T01:45:39;27.45;;;13.50;;
18997;SDS011;9632;51.018;4.284;2023-11-21T01:48:05;29.38;;;13.73;;
18997;SDS011;9632;51.018;4.284;2023-11-21T01:50:32;29.50;;;13.85;;
18997;SDS011;9632;51.018;4.284;2023-11-21T01:52:58;29.20;;;13.63;;
18997;SDS011;9632;51.018;4.284;2023-11-21T01:55:25;29.08;;;12.70;;
18997;SDS011;9632;51.018;4.284;2023-11-21T01:57:52;26.63;;;12.68;;
18997;SDS011;9632;51.018;4.284;2023-11-21T02:00:18;28.67;;;13.18;;
18997;SDS011;9632;51.018;4.284;2023-11-21T02:02:47;34.90;;;14.82;;
18997;SDS011;9632;51.018;4.284;2023-11-21T02:05:17;32.20;;;14.40;;
18997;SDS011;9632;51.018;4.284;2023-11-21T02:07:43;28.77;;;13.43;;
18997;SDS011;9632;51.018;4.284;2023-11-21T02:10:12;30.55;;;14.02;;
18997;SDS011;9632;51.018;4.284;2023-11-21T02:12:41;30.92;;;13.88;;
18997;SDS011;9632;51.018;4.284;2023-11-21T02:15:10;28.38;;;13.40;;
18997;SDS011;9632;51.018;4.284;2023-11-21T02:17:51;32.63;;;14.20;;
18997;SDS011;9632;51.018;4.284;2023-11-21T02:20:18;30.88;;;13.82;;
18997;SDS011;9632;51.018;4.284;2023-11-21T02:22:51;29.17;;;13.35;;
18997;SDS011;9632;51.018;4.284;2023-11-21T02:25:31;27.85;;;12.98;;
18997;SDS011;9632;51.018;4.284;2023-11-21T02:27:58;32.85;;;14.65;;
18997;SDS011;9632;51.018;4.284;2023-11-21T02:30:25;32.95;;;14.25;;
18997;SDS011;9632;51.018;4.284;2023-11-21T02:32:53;28.35;;;13.57;;
18997;SDS011;9632;51.018;4.284;2023-11-21T02:35:19;29.00;;;13.35;;
18997;SDS011;9632;51.018;4.284;2023-11-21T02:37:48;25.90;;;13.20;;
18997;SDS011;9632;51.018;4.284;2023-11-21T02:40:14;29.95;;;13.50;;
18997;SDS011;9632;51.018;4.284;2023-11-21T02:42:45;29.42;;;13.30;;
18997;SDS011;9632;51.018;4.284;2023-11-21T02:45:12;27.73;;;13.40;;
18997;SDS011;9632;51.018;4.284;2023-11-21T02:47:41;33.13;;;14.48;;
18997;SDS011;9632;51.018;4.284;2023-11-21T02:50:08;30.67;;;13.30;;
18997;SDS011;9632;51.018;4.284;2023-11-21T02:52:34;33.72;;;15.38;;
18997;SDS011;9632;51.018;4.284;2023-11-21T02:55:00;37.40;;;15.88;;
18997;SDS011;9632;51.018;4.284;2023-11-21T02:57:27;31.80;;;14.55;;
18997;SDS011;9632;51.018;4.284;2023-11-21T02:59:52;32.88;;;13.82;;
18997;SDS011;9632;51.018;4.284;2023-11-21T03:02:18;31.27;;;14.90;;
18997;SDS011;9632;51.018;4.284;2023-11-21T03:04:43;33.25;;;15.70;;
18997;SDS011;9632;51.018;4.284;2023-11-21T03:07:09;35.58;;;14.93;;
18997;SDS011;9632;51.018;4.284;2023-11-21T03:09:35;29.35;;;13.98;;
18997;SDS011;9632;51.018;4.284;2023-11-21T03:12:01;30.08;;;13.90;;
18997;SDS011;9632;51.018;4.284;2023-11-21T03:14:27;28.58;;;13.65;;
18997;SDS011;9632;51.018;4.284;2023-11-21T03:16:52;27.45;;;13.50;;
18997;SDS011;9632;51.018;4.284;2023-11-21T03:19:18;26.58;;;13.23;;
18997;SDS011;9632;51.018;4.284;2023-11-21T03:21:43;26.92;;;12.40;;
18997;SDS011;9632;51.018;4.284;2023-11-21T03:24:09;27.48;;;13.82;;
18997;SDS011;9632;51.018;4.284;2023-11-21T03:26:35;29.05;;;13.45;;
18997;SDS011;9632;51.018;4.284;2023-11-21T03:29:02;27.35;;;12.82;;
18997;SDS011;9632;51.018;4.284;2023-11-21T03:31:29;28.98;;;13.70;;
18997;SDS011;9632;51.018;4.284;2023-11-21T03:33:55;27.75;;;13.38;;
18997;SDS011;9632;51.018;4.284;2023-11-21T03:36:21;25.90;;;12.75;;
18997;SDS011;9632;51.018;4.284;2023-11-21T03:38:47;30.48;;;13.25;;
18997;SDS011;9632;51.018;4.284;2023-11-21T03:41:14;24.02;;;12.57;;
18997;SDS011;9632;51.018;4.284;2023-11-21T03:43:40;28.40;;;13.48;;
18997;SDS011;9632;51.018;4.284;2023-11-21T03:46:05;26.83;;;13.68;;
18997;SDS011;9632;51.018;4.284;2023-11-21T03:48:32;25.27;;;13.27;;
18997;SDS011;9632;51.018;4.284;2023-11-21T03:50:58;29.02;;;13.38;;
18997;SDS011;9632;51.018;4.284;2023-11-21T03:53:23;23.67;;;12.38;;
18997;SDS011;9632;51.018;4.284;2023-11-21T03:55:49;27.70;;;13.10;;
18997;SDS011;9632;51.018;4.284;2023-11-21T03:58:15;30.58;;;13.55;;
18997;SDS011;9632;51.018;4.284;2023-11-21T04:00:40;27.73;;;13.13;;
18997;SDS011;9632;51.018;4.284;2023-11-21T04:03:06;24.20;;;12.55;;
18997;SDS011;9632;51.018;4.284;2023-11-21T04:05:32;26.23;;;12.75;;
18997;SDS011;9632;51.018;4.284;2023-11-21T04:07:57;23.67;;;12.23;;
18997;SDS011;9632;51.018;4.284;2023-11-21T04:10:23;24.13;;;12.60;;
18997;SDS011;9632;51.018;4.284;2023-11-21T04:12:49;20.73;;;11.57;;
18997;SDS011;9632;51.018;4.284;2023-11-21T04:15:14;27.02;;;12.57;;
18997;SDS011;9632;51.018;4.284;2023-11-21T04:17:40;26.00;;;12.77;;
18997;SDS011;9632;51.018;4.284;2023-11-21T04:20:07;23.85;;;12.50;;
18997;SDS011;9632;51.018;4.284;2023-11-21T04:22:41;25.73;;;12.15;;
18997;SDS011;9632;51.018;4.284;2023-11-21T04:25:09;29.98;;;13.75;;
18997;SDS011;9632;51.018;4.284;2023-11-21T04:27:39;28.45;;;13.05;;
18997;SDS011;9632;51.018;4.284;2023-11-21T04:30:06;22.70;;;12.00;;
18997;SDS011;9632;51.018;4.284;2023-11-21T04:32:32;27.48;;;13.30;;
18997;SDS011;9632;51.018;4.284;2023-11-21T04:34:58;23.88;;;12.00;;
18997;SDS011;9632;51.018;4.284;2023-11-21T04:37:24;21.95;;;12.43;;
18997;SDS011;9632;51.018;4.284;2023-11-21T04:39:50;22.67;;;12.07;;
18997;SDS011;9632;51.018;4.284;2023-11-21T04:42:15;21.77;;;11.88;;
18997;SDS011;9632;51.018;4.284;2023-11-21T04:44:41;22.95;;;11.52;;
18997;SDS011;9632;51.018;4.284;2023-11-21T04:47:06;25.33;;;12.50;;
18997;SDS011;9632;51.018;4.284;2023-11-21T04:49:32;27.63;;;14.23;;
18997;SDS011;9632;51.018;4.284;2023-11-21T04:51:58;28.95;;;13.77;;
18997;SDS011;9632;51.018;4.284;2023-11-21T04:54:24;23.60;;;12.75;;
18997;SDS011;9632;51.018;4.284;2023-11-21T04:56:50;31.15;;;13.85;;
18997;SDS011;9632;51.018;4.284;2023-11-21T04:59:16;22.95;;;12.45;;
18997;SDS011;9632;51.018;4.284;2023-11-21T05:01:41;21.73;;;12.60;;
18997;SDS011;9632;51.018;4.284;2023-11-21T05:04:07;27.65;;;13.55;;
18997;SDS011;9632;51.018;4.284;2023-11-21T05:06:33;24.60;;;12.70;;
18997;SDS011;9632;51.018;4.284;2023-11-21T05:08:59;22.98;;;12.00;;
18997;SDS011;9632;51.018;4.284;2023-11-21T05:11:25;24.52;;;12.98;;
18997;SDS011;9632;51.018;4.284;2023-11-21T05:13:52;22.23;;;12.27;;
18997;SDS011;9632;51.018;4.284;2023-11-21T05:16:19;26.08;;;13.75;;
18997;SDS011;9632;51.018;4.284;2023-11-21T05:18:45;25.90;;;13.50;;
18997;SDS011;9632;51.018;4.284;2023-11-21T05:21:10;24.17;;;13.05;;
18997;SDS011;9632;51.018;4.284;2023-11-21T05:23:36;24.88;;;13.07;;
18997;SDS011;9632;51.018;4.284;2023-11-21T05:26:02;26.25;;;12.82;;
18997;SDS011;9632;51.018;4.284;2023-11-21T05:28:28;26.50;;;13.23;;
18997;SDS011;9632;51.018;4.284;2023-11-21T05:30:54;25.33;;;12.65;;
18997;SDS011;9632;51.018;4.284;2023-11-21T05:33:20;24.65;;;13.15;;
18997;SDS011;9632;51.018;4.284;2023-11-21T05:35:45;23.48;;;13.25;;
18997;SDS011;9632;51.018;4.284;2023-11-21T05:38:13;26.98;;;13.27;;
18997;SDS011;9632;51.018;4.284;2023-11-21T05:40:39;28.23;;;13.38;;
18997;SDS011;9632;51.018;4.284;2023-11-21T05:43:05;25.98;;;13.32;;
18997;SDS011;9632;51.018;4.284;2023-11-21T05:45:31;24.30;;;13.25;;
18997;SDS011;9632;51.018;4.284;2023-11-21T05:47:58;25.50;;;14.20;;
18997;SDS011;9632;51.018;4.284;2023-11-21T05:50:23;27.38;;;13.32;;
18997;SDS011;9632;51.018;4.284;2023-11-21T05:52:49;27.30;;;13.98;;
18997;SDS011;9632;51.018;4.284;2023-11-21T05:55:15;26.00;;;13.95;;
18997;SDS011;9632;51.018;4.284;2023-11-21T05:57:42;25.17;;;13.50;;
18997;SDS011;9632;51.018;4.284;2023-11-21T06:00:09;25.08;;;12.85;;
18997;SDS011;9632;51.018;4.284;2023-11-21T06:02:43;23.98;;;13.70;;
18997;SDS011;9632;51.018;4.284;2023-11-21T06:05:10;25.73;;;13.52;;
18997;SDS011;9632;51.018;4.284;2023-11-21T06:07:36;27.63;;;13.68;;
18997;SDS011;9632;51.018;4.284;2023-11-21T06:10:03;27.08;;;13.50;;
18997;SDS011;9632;51.018;4.284;2023-11-21T06:12:31;30.67;;;14.13;;
18997;SDS011;9632;51.018;4.284;2023-11-21T06:15:00;26.08;;;14.25;;
18997;SDS011;9632;51.018;4.284;2023-11-21T06:17:30;28.77;;;15.75;;
18997;SDS011;9632;51.018;4.284;2023-11-21T06:19:56;26.50;;;13.77;;
18997;SDS011;9632;51.018;4.284;2023-11-21T06:22:22;22.77;;;13.32;;
18997;SDS011;9632;51.018;4.284;2023-11-21T06:24:48;29.15;;;15.00;;
18997;SDS011;9632;51.018;4.284;2023-11-21T06:27:14;32.53;;;14.30;;
18997;SDS011;9632;51.018;4.284;2023-11-21T06:29:40;26.55;;;14.63;;
18997;SDS011;9632;51.018;4.284;2023-11-21T06:32:07;29.88;;;14.52;;
18997;SDS011;9632;51.018;4.284;2023-11-21T06:34:33;27.55;;;15.00;;
18997;SDS011;9632;51.018;4.284;2023-11-21T06:36:59;28.80;;;13.95;;
18997;SDS011;9632;51.018;4.284;2023-11-21T06:39:24;31.70;;;15.80;;
18997;SDS011;9632;51.018;4.284;2023-11-21T06:41:50;28.10;;;15.10;;
18997;SDS011;9632;51.018;4.284;2023-11-21T06:44:16;30.35;;;15.55;;
18997;SDS011;9632;51.018;4.284;2023-11-21T06:46:41;26.45;;;14.40;;
18997;SDS011;9632;51.018;4.284;2023-11-21T06:49:07;26.08;;;14.60;;
18997;SDS011;9632;51.018;4.284;2023-11-21T06:51:33;27.58;;;14.57;;
18997;SDS011;9632;51.018;4.284;2023-11-21T06:53:59;29.80;;;15.75;;
18997;SDS011;9632;51.018;4.284;2023-11-21T06:56:25;25.23;;;14.70;;
18997;SDS011;9632;51.018;4.284;2023-11-21T06:58:50;27.25;;;15.02;;
18997;SDS011;9632;51.018;4.284;2023-11-21T07:01:19;26.20;;;14.30;;
18997;SDS011;9632;51.018;4.284;2023-11-21T07:03:45;25.35;;;14.40;;
18997;SDS011;9632;51.018;4.284;2023-11-21T07:06:10;26.83;;;14.98;;
18997;SDS011;9632;51.018;4.284;2023-11-21T07:08:36;25.75;;;14.68;;
18997;SDS011;9632;51.018;4.284;2023-11-21T07:11:02;27.73;;;15.18;;
18997;SDS011;9632;51.018;4.284;2023-11-21T07:13:29;27.58;;;15.10;;
18997;SDS011;9632;51.018;4.284;2023-11-21T07:15:55;27.60;;;14.52;;
18997;SDS011;9632;51.018;4.284;2023-11-21T07:18:21;25.75;;;13.95;;
18997;SDS011;9632;51.018;4.284;2023-11-21T07:20:46;26.95;;;13.77;;
18997;SDS011;9632;51.018;4.284;2023-11-21T07:23:12;34.03;;;15.48;;
18997;SDS011;9632;51.018;4.284;2023-11-21T07:25:38;32.88;;;15.75;;
18997;SDS011;9632;51.018;4.284;2023-11-21T07:28:03;25.40;;;14.77;;
18997;SDS011;9632;51.018;4.284;2023-11-21T07:30:30;28.80;;;15.38;;
18997;SDS011;9632;51.018;4.284;2023-11-21T07:32:56;27.23;;;14.25;;
18997;SDS011;9632;51.018;4.284;2023-11-21T07:35:21;31.20;;;15.43;;
18997;SDS011;9632;51.018;4.284;2023-11-21T07:37:47;26.77;;;14.27;;
18997;SDS011;9632;51.018;4.284;2023-11-21T07:40:13;30.48;;;14.63;;
18997;SDS011;9632;51.018;4.284;2023-11-21T07:42:39;27.75;;;14.48;;
18997;SDS011;9632;51.018;4.284;2023-11-21T07:45:07;25.00;;;14.35;;
18997;SDS011;9632;51.018;4.284;2023-11-21T07:47:34;26.83;;;14.40;;
18997;SDS011;9632;51.018;4.284;2023-11-21T07:50:00;25.92;;;13.23;;
18997;SDS011;9632;51.018;4.284;2023-11-21T07:52:28;28.80;;;15.18;;
18997;SDS011;9632;51.018;4.284;2023-11-21T07:54:54;27.67;;;14.93;;
18997;SDS011;9632;51.018;4.284;2023-11-21T07:57:19;30.08;;;15.35;;
18997;SDS011;9632;51.018;4.284;2023-11-21T07:59:45;35.63;;;17.20;;
18997;SDS011;9632;51.018;4.284;2023-11-21T08:02:11;36.42;;;16.85;;
18997;SDS011;9632;51.018;4.284;2023-11-21T08:04:37;31.13;;;16.27;;
18997;SDS011;9632;51.018;4.284;2023-11-21T08:07:02;34.35;;;15.38;;
18997;SDS011;9632;51.018;4.284;2023-11-21T08:09:28;34.80;;;16.08;;
18997;SDS011;9632;51.018;4.284;2023-11-21T08:11:54;31.90;;;16.40;;
18997;SDS011;9632;51.018;4.284;2023-11-21T08:14:21;40.03;;;17.65;;
18997;SDS011;9632;51.018;4.284;2023-11-21T08:16:47;35.80;;;16.75;;
18997;SDS011;9632;51.018;4.284;2023-11-21T08:19:13;32.45;;;15.27;;
18997;SDS011;9632;51.018;4.284;2023-11-21T08:21:38;44.40;;;18.15;;
18997;SDS011;9632;51.018;4.284;2023-11-21T08:24:07;38.28;;;17.45;;
18997;SDS011;9632;51.018;4.284;2023-11-21T08:26:35;39.78;;;17.45;;
18997;SDS011;9632;51.018;4.284;2023-11-21T08:29:02;34.42;;;16.35;;
18997;SDS011;9632;51.018;4.284;2023-11-21T08:31:27;36.08;;;17.45;;
18997;SDS011;9632;51.018;4.284;2023-11-21T08:33:54;33.22;;;15.40;;
18997;SDS011;9632;51.018;4.284;2023-11-21T08:36:21;40.85;;;16.70;;
18997;SDS011;9632;51.018;4.284;2023-11-21T08:38:49;37.55;;;16.02;;
18997;SDS011;9632;51.018;4.284;2023-11-21T08:41:17;31.00;;;14.85;;
18997;SDS011;9632;51.018;4.284;2023-11-21T08:43:47;38.40;;;16.88;;
18997;SDS011;9632;51.018;4.284;2023-11-21T08:46:13;47.10;;;19.45;;
18997;SDS011;9632;51.018;4.284;2023-11-21T08:48:40;38.78;;;17.48;;
18997;SDS011;9632;51.018;4.284;2023-11-21T08:51:06;31.00;;;16.23;;
18997;SDS011;9632;51.018;4.284;2023-11-21T08:53:34;34.17;;;15.45;;
18997;SDS011;9632;51.018;4.284;2023-11-21T08:56:00;40.17;;;17.35;;
18997;SDS011;9632;51.018;4.284;2023-11-21T08:58:26;35.28;;;15.73;;
18997;SDS011;9632;51.018;4.284;2023-11-21T09:00:52;31.40;;;15.60;;
18997;SDS011;9632;51.018;4.284;2023-11-21T09:03:18;36.03;;;16.70;;
18997;SDS011;9632;51.018;4.284;2023-11-21T09:05:43;38.40;;;17.23;;
18997;SDS011;9632;51.018;4.284;2023-11-21T09:08:09;37.60;;;17.30;;
18997;SDS011;9632;51.018;4.284;2023-11-21T09:10:35;37.95;;;17.58;;
18997;SDS011;9632;51.018;4.284;2023-11-21T09:13:01;39.00;;;17.13;;
18997;SDS011;9632;51.018;4.284;2023-11-21T09:15:27;43.97;;;19.17;;
18997;SDS011;9632;51.018;4.284;2023-11-21T09:17:54;39.05;;;18.20;;
18997;SDS011;9632;51.018;4.284;2023-11-21T09:20:21;39.13;;;18.40;;
18997;SDS011;9632;51.018;4.284;2023-11-21T09:22:48;32.97;;;16.27;;
18997;SDS011;9632;51.018;4.284;2023-11-21T09:25:14;31.45;;;15.27;;
18997;SDS011;9632;51.018;4.284;2023-11-21T09:27:40;36.88;;;18.08;;
18997;SDS011;9632;51.018;4.284;2023-11-21T09:30:06;39.10;;;18.02;;
18997;SDS011;9632;51.018;4.284;2023-11-21T09:32:35;38.72;;;18.52;;
18997;SDS011;9632;51.018;4.284;2023-11-21T09:35:03;49.30;;;22.45;;
18997;SDS011;9632;51.018;4.284;2023-11-21T09:37:30;44.08;;;20.70;;
18997;SDS011;9632;51.018;4.284;2023-11-21T09:39:56;39.55;;;18.38;;
18997;SDS011;9632;51.018;4.284;2023-11-21T09:42:25;42.70;;;19.42;;
18997;SDS011;9632;51.018;4.284;2023-11-21T09:45:05;43.05;;;19.58;;
18997;SDS011;9632;51.018;4.284;2023-11-21T09:47:33;38.67;;;19.10;;
18997;SDS011;9632;51.018;4.284;2023-11-21T09:50:03;50.00;;;21.08;;
18997;SDS011;9632;51.018;4.284;2023-11-21T09:52:33;47.15;;;20.77;;
18997;SDS011;9632;51.018;4.284;2023-11-21T09:55:16;43.63;;;19.25;;
18997;SDS011;9632;51.018;4.284;2023-11-21T09:57:46;53.58;;;23.70;;
18997;SDS011;9632;51.018;4.284;2023-11-21T10:00:15;39.72;;;19.65;;
18997;SDS011;9632;51.018;4.284;2023-11-21T10:02:43;40.15;;;18.45;;
18997;SDS011;9632;51.018;4.284;2023-11-21T10:05:09;40.33;;;19.17;;
18997;SDS011;9632;51.018;4.284;2023-11-21T10:07:36;34.58;;;17.27;;
18997;SDS011;9632;51.018;4.284;2023-11-21T10:10:02;37.47;;;17.75;;
18997;SDS011;9632;51.018;4.284;2023-11-21T10:12:29;39.22;;;18.55;;
18997;SDS011;9632;51.018;4.284;2023-11-21T10:14:56;35.53;;;18.45;;
18997;SDS011;9632;51.018;4.284;2023-11-21T10:17:25;38.63;;;19.25;;
18997;SDS011;9632;51.018;4.284;2023-11-21T10:19:55;34.85;;;18.75;;
18997;SDS011;9632;51.018;4.284;2023-11-21T10:22:22;38.83;;;19.52;;
18997;SDS011;9632;51.018;4.284;2023-11-21T10:24:49;31.02;;;17.25;;
18997;SDS011;9632;51.018;4.284;2023-11-21T10:27:14;29.70;;;16.85;;
18997;SDS011;9632;51.018;4.284;2023-11-21T10:29:40;34.97;;;17.77;;
18997;SDS011;9632;51.018;4.284;2023-11-21T10:32:07;34.65;;;18.27;;
18997;SDS011;9632;51.018;4.284;2023-11-21T10:34:32;31.70;;;17.38;;
18997;SDS011;9632;51.018;4.284;2023-11-21T10:36:59;27.30;;;14.60;;
18997;SDS011;9632;51.018;4.284;2023-11-21T10:39:36;29.60;;;16.10;;
18997;SDS011;9632;51.018;4.284;2023-11-21T10:42:03;27.95;;;15.32;;
18997;SDS011;9632;51.018;4.284;2023-11-21T10:44:29;27.05;;;14.80;;
18997;SDS011;9632;51.018;4.284;2023-11-21T10:46:55;28.88;;;15.05;;
18997;SDS011;9632;51.018;4.284;2023-11-21T10:49:22;30.23;;;15.95;;
18997;SDS011;9632;51.018;4.284;2023-11-21T10:51:50;27.00;;;15.18;;
18997;SDS011;9632;51.018;4.284;2023-11-21T10:54:20;30.38;;;16.13;;
18997;SDS011;9632;51.018;4.284;2023-11-21T10:56:49;27.65;;;14.60;;
18997;SDS011;9632;51.018;4.284;2023-11-21T10:59:16;30.05;;;15.63;;
18997;SDS011;9632;51.018;4.284;2023-11-21T11:01:42;29.13;;;15.20;;
18997;SDS011;9632;51.018;4.284;2023-11-21T11:04:11;27.77;;;15.23;;
18997;SDS011;9632;51.018;4.284;2023-11-21T11:06:40;24.15;;;14.80;;
18997;SDS011;9632;51.018;4.284;2023-11-21T11:09:13;29.38;;;14.25;;
18997;SDS011;9632;51.018;4.284;2023-11-21T11:11:41;22.58;;;12.52;;
18997;SDS011;9632;51.018;4.284;2023-11-21T11:14:12;23.80;;;11.98;;
18997;SDS011;9632;51.018;4.284;2023-11-21T11:16:39;19.42;;;11.15;;
18997;SDS011;9632;51.018;4.284;2023-11-21T11:19:09;19.20;;;10.85;;
18997;SDS011;9632;51.018;4.284;2023-11-21T11:27:00;20.50;;;10.13;;
18997;SDS011;9632;51.018;4.284;2023-11-21T11:29:54;19.42;;;9.60;;
18997;SDS011;9632;51.018;4.284;2023-11-21T11:35:51;21.27;;;9.50;;
18997;SDS011;9632;51.018;4.284;2023-11-21T11:38:30;15.30;;;7.30;;
18997;SDS011;9632;51.018;4.284;2023-11-21T11:40:59;15.63;;;6.45;;
18997;SDS011;9632;51.018;4.284;2023-11-21T11:43:30;17.75;;;5.95;;
18997;SDS011;9632;51.018;4.284;2023-11-21T11:46:08;16.55;;;6.10;;
18997;SDS011;9632;51.018;4.284;2023-11-21T11:48:37;12.93;;;5.75;;
18997;SDS011;9632;51.018;4.284;2023-11-21T11:51:14;18.38;;;5.45;;
18997;SDS011;9632;51.018;4.284;2023-11-21T11:53:42;9.90;;;4.35;;
18997;SDS011;9632;51.018;4.284;2023-11-21T11:56:23;9.43;;;4.20;;
18997;SDS011;9632;51.018;4.284;2023-11-21T11:58:59;11.40;;;4.78;;
18997;SDS011;9632;51.018;4.284;2023-11-21T12:01:27;17.08;;;5.60;;
18997;SDS011;9632;51.018;4.284;2023-11-21T12:07:04;15.85;;;4.90;;
18997;SDS011;9632;51.018;4.284;2023-11-21T12:09:31;16.20;;;4.78;;
18997;SDS011;9632;51.018;4.284;2023-11-21T12:11:58;9.95;;;3.72;;
18997;SDS011;9632;51.018;4.284;2023-11-21T12:14:25;11.50;;;4.53;;
18997;SDS011;9632;51.018;4.284;2023-11-21T12:16:50;15.23;;;4.80;;
18997;SDS011;9632;51.018;4.284;2023-11-21T12:19:17;10.93;;;4.22;;
18997;SDS011;9632;51.018;4.284;2023-11-21T12:21:43;17.67;;;4.95;;
18997;SDS011;9632;51.018;4.284;2023-11-21T12:24:13;11.35;;;4.30;;
18997;SDS011;9632;51.018;4.284;2023-11-21T12:26:41;11.95;;;3.97;;
18997;SDS011;9632;51.018;4.284;2023-11-21T12:29:07;12.55;;;4.38;;
18997;SDS011;9632;51.018;4.284;2023-11-21T12:31:33;15.32;;;4.47;;
18997;SDS011;9632;51.018;4.284;2023-11-21T12:34:00;15.48;;;5.57;;
18997;SDS011;9632;51.018;4.284;2023-11-21T12:36:26;15.38;;;5.90;;
18997;SDS011;9632;51.018;4.284;2023-11-21T12:38:54;10.70;;;5.18;;
18997;SDS011;9632;51.018;4.284;2023-11-21T12:41:19;15.25;;;6.35;;
18997;SDS011;9632;51.018;4.284;2023-11-21T12:43:46;9.18;;;5.50;;
18997;SDS011;9632;51.018;4.284;2023-11-21T12:46:13;8.80;;;5.20;;
18997;SDS011;9632;51.018;4.284;2023-11-21T12:48:43;13.90;;;6.63;;
18997;SDS011;9632;51.018;4.284;2023-11-21T12:51:10;15.30;;;5.97;;
18997;SDS011;9632;51.018;4.284;2023-11-21T12:53:37;13.25;;;6.10;;
18997;SDS011;9632;51.018;4.284;2023-11-21T12:56:21;11.65;;;6.93;;
18997;SDS011;9632;51.018;4.284;2023-11-21T12:58:50;18.10;;;7.03;;
18997;SDS011;9632;51.018;4.284;2023-11-21T13:01:19;13.35;;;6.95;;
18997;SDS011;9632;51.018;4.284;2023-11-21T13:03:47;14.30;;;6.50;;
18997;SDS011;9632;51.018;4.284;2023-11-21T13:06:16;14.65;;;6.38;;
18997;SDS011;9632;51.018;4.284;2023-11-21T13:08:44;11.35;;;5.85;;
18997;SDS011;9632;51.018;4.284;2023-11-21T13:11:10;9.13;;;5.20;;
18997;SDS011;9632;51.018;4.284;2023-11-21T13:13:36;9.70;;;5.45;;
18997;SDS011;9632;51.018;4.284;2023-11-21T13:16:05;8.27;;;5.13;;
18997;SDS011;9632;51.018;4.284;2023-11-21T13:18:33;9.27;;;4.68;;
18997;SDS011;9632;51.018;4.284;2023-11-21T13:20:59;10.30;;;4.88;;
18997;SDS011;9632;51.018;4.284;2023-11-21T13:23:35;10.25;;;5.43;;
18997;SDS011;9632;51.018;4.284;2023-11-21T13:26:03;9.25;;;5.10;;
18997;SDS011;9632;51.018;4.284;2023-11-21T13:28:30;7.50;;;4.45;;
18997;SDS011;9632;51.018;4.284;2023-11-21T13:30:59;7.65;;;4.25;;
18997;SDS011;9632;51.018;4.284;2023-11-21T13:33:35;10.55;;;4.57;;
18997;SDS011;9632;51.018;4.284;2023-11-21T13:36:05;6.72;;;4.05;;
18997;SDS011;9632;51.018;4.284;2023-11-21T13:38:34;6.15;;;3.65;;
18997;SDS011;9632;51.018;4.284;2023-11-21T13:41:02;8.07;;;4.10;;
18997;SDS011;9632;51.018;4.284;2023-11-21T13:43:32;8.25;;;4.28;;
18997;SDS011;9632;51.018;4.284;2023-11-21T13:45:58;7.28;;;3.90;;
18997;SDS011;9632;51.018;4.284;2023-11-21T13:48:28;7.32;;;3.63;;
18997;SDS011;9632;51.018;4.284;2023-11-21T13:51:02;5.80;;;2.97;;
18997;SDS011;9632;51.018;4.284;2023-11-21T13:53:45;5.28;;;2.47;;
18997;SDS011;9632;51.018;4.284;2023-11-21T13:56:16;6.45;;;3.03;;
18997;SDS011;9632;51.018;4.284;2023-11-21T13:58:49;5.07;;;2.60;;
18997;SDS011;9632;51.018;4.284;2023-11-21T14:01:26;8.10;;;3.75;;
18997;SDS011;9632;51.018;4.284;2023-11-21T14:03:58;11.10;;;5.20;;
18997;SDS011;9632;51.018;4.284;2023-11-21T14:06:38;8.60;;;4.03;;
18997;SDS011;9632;51.018;4.284;2023-11-21T14:09:13;8.60;;;3.70;;
18997;SDS011;9632;51.018;4.284;2023-11-21T14:11:47;6.85;;;3.70;;
18997;SDS011;9632;51.018;4.284;2023-11-21T14:14:26;5.88;;;3.22;;
18997;SDS011;9632;51.018;4.284;2023-11-21T14:16:55;5.95;;;3.30;;
18997;SDS011;9632;51.018;4.284;2023-11-21T14:19:21;4.40;;;2.97;;
18997;SDS011;9632;51.018;4.284;2023-11-21T14:21:47;5.65;;;2.75;;
18997;SDS011;9632;51.018;4.284;2023-11-21T14:24:15;7.75;;;3.22;;
18997;SDS011;9632;51.018;4.284;2023-11-21T14:26:44;8.82;;;3.22;;
18997;SDS011;9632;51.018;4.284;2023-11-21T14:29:11;5.45;;;2.90;;
18997;SDS011;9632;51.018;4.284;2023-11-21T14:31:44;5.72;;;2.72;;
18997;SDS011;9632;51.018;4.284;2023-11-21T14:34:14;5.03;;;3.17;;
18997;SDS011;9632;51.018;4.284;2023-11-21T14:36:40;7.25;;;2.47;;
18997;SDS011;9632;51.018;4.284;2023-11-21T14:39:06;5.22;;;2.97;;
18997;SDS011;9632;51.018;4.284;2023-11-21T14:41:36;5.20;;;3.00;;
18997;SDS011;9632;51.018;4.284;2023-11-21T14:44:03;6.95;;;2.65;;
18997;SDS011;9632;51.018;4.284;2023-11-21T14:46:29;5.78;;;3.10;;
18997;SDS011;9632;51.018;4.284;2023-11-21T14:48:55;5.47;;;2.72;;
18997;SDS011;9632;51.018;4.284;2023-11-21T14:51:27;5.20;;;2.55;;